Warspite, Canada
Current Conditions -  °F | °C
As of 4:00 AM on Saturday 20 Dec 2014 (Local Time) from CYED Reporting Station
Clear Clear  
Wind Chill: -10°   Ceiling: Unl
Heat Index: -10°   Visibility: 3mi
Dew Point: -12°   Wind: 2mph
Humidity: 86%   Direction: 230°SW
Pressure: 29.68"   Gusts: NA
Location:  54.09°N, 112.62°W
Report Text: CYED 201100Z AUTO 23002KT 3SM CLR M10/M12 A2968 RMK SLP093
Loading
Personal Weather Stations






























Interactive Weather Map New forecast layout! Learn more

10-Day Weather Forecast

Advertisements
Track Severe Weather on mobile